Time;durP1;ratioP1;P1;durP2;ratioP2;P2;SDS_P1;SDS_P2;PMS_P1;PMS_P2;Temp;Humidity;BMP_temperature;BMP_pressure;BME280_temperature;BME280_humidity;BME280_pressure;Samples;Min_cycle;Max_cycle;Signal;HPM_P1;HPM_P2
2022/01/16 04:01:48;;;;;;;5.33;4.73;;;1.00;84.10;;;;;;5577205;23;20487;-77
2022/01/16 04:04:15;;;;;;;6.00;5.13;;;1.20;83.40;;;;;;5013601;28;20448;-77
2022/01/16 04:06:42;;;;;;;5.40;4.60;;;1.40;82.40;;;;;;5013538;28;20452;-77
2022/01/16 04:09:08;;;;;;;5.60;5.03;;;1.50;81.80;;;;;;5013556;28;20816;-77
2022/01/16 04:11:38;;;;;;;5.90;5.30;;;1.60;81.40;;;;;;5013339;28;20480;-77
2022/01/16 04:14:08;;;;;;;5.47;4.97;;;1.70;80.60;;;;;;5013440;28;20456;-77
2022/01/16 04:16:35;;;;;;;5.97;5.37;;;1.80;80.30;;;;;;5015583;28;20461;-77
2022/01/16 04:19:04;;;;;;;6.93;5.17;;;1.90;80.00;;;;;;5013481;28;20478;-77
2022/01/16 04:21:31;;;;;;;6.03;5.13;;;2.00;79.30;;;;;;5013332;28;20484;-77
2022/01/16 04:23:58;;;;;;;5.60;4.90;;;2.00;78.70;;;;;;5013342;28;20471;-77
2022/01/16 04:26:26;;;;;;;5.20;4.63;;;2.10;77.70;;;;;;5013304;28;20567;-77
2022/01/16 04:28:54;;;;;;;5.70;4.87;;;2.00;77.70;;;;;;5013352;28;20538;-77
2022/01/16 04:31:21;;;;;;;6.07;5.47;;;2.10;77.80;;;;;;5013137;28;20468;-77
2022/01/16 04:33:48;;;;;;;5.67;4.50;;;2.10;77.60;;;;;;5013226;28;20448;-77
2022/01/16 04:36:16;;;;;;;6.30;5.70;;;2.10;77.50;;;;;;5013292;28;20452;-77
2022/01/16 04:38:46;;;;;;;5.10;4.40;;;2.10;77.50;;;;;;5013247;28;20444;-77
2022/01/16 04:43:58;;;;;;;7.30;5.37;;;1.70;77.20;;;;;;5013290;28;20404;-77
2022/01/16 04:46:26;;;;;;;5.70;5.10;;;0.90;80.10;;;;;;5013196;28;20444;-77
2022/01/16 04:48:55;;;;;;;10.10;6.27;;;0.60;82.70;;;;;;5013364;28;20448;-77
2022/01/16 04:51:24;;;;;;;8.20;6.67;;;0.80;82.60;;;;;;5013125;28;20473;-76
2022/01/16 04:53:51;;;;;;;5.20;4.70;;;0.90;82.50;;;;;;5014060;28;20448;-77
2022/01/16 04:56:18;;;;;;;5.30;4.70;;;0.90;82.20;;;;;;5016783;28;20448;-77
2022/01/16 04:58:45;;;;;;;5.80;5.20;;;1.10;82.00;;;;;;5016736;28;20455;-77
2022/01/16 05:01:11;;;;;;;6.20;5.30;;;1.30;81.10;;;;;;5016410;28;20472;-77
2022/01/16 05:03:39;;;;;;;5.97;5.30;;;1.40;80.50;;;;;;5016632;28;20780;-76
2022/01/16 05:06:07;;;;;;;5.97;5.37;;;1.50;79.60;;;;;;5017351;28;20452;-77
2022/01/16 05:08:35;;;;;;;5.93;5.17;;;1.50;79.40;;;;;;5016760;28;20440;-77
2022/01/16 05:11:02;;;;;;;6.53;5.93;;;1.60;79.40;;;;;;5016324;28;20457;-76
2022/01/16 05:16:34;;;;;;;6.40;5.47;;;1.70;78.80;;;;;;5016424;28;20483;-77
2022/01/16 05:16:37;;;;;;;6.20;5.50;;;1.80;78.30;;;;;;5016310;28;20449;-77
2022/01/16 05:19:05;;;;;;;5.00;4.50;;;1.80;77.50;;;;;;5016532;28;20788;-77
2022/01/16 05:21:32;;;;;;;5.03;4.33;;;1.80;77.10;;;;;;5015933;28;20472;-77
2022/01/16 05:24:02;;;;;;;4.57;4.07;;;1.90;76.60;;;;;;5016216;28;20444;-77
2022/01/16 05:26:29;;;;;;;4.77;4.27;;;1.80;76.50;;;;;;5016422;28;20447;-77
2022/01/16 05:28:56;;;;;;;5.17;4.67;;;1.80;76.20;;;;;;5016099;28;20444;-77
2022/01/16 05:31:24;;;;;;;4.80;4.30;;;1.80;75.80;;;;;;5015673;28;20507;-77
2022/01/16 05:33:52;;;;;;;4.83;4.33;;;1.80;75.40;;;;;;5015663;28;20487;-77
2022/01/16 05:36:20;;;;;;;5.33;4.83;;;1.70;75.20;;;;;;5015967;28;20514;-77
2022/01/16 05:38:47;;;;;;;5.57;4.97;;;1.70;75.20;;;;;;5016184;28;20452;-77
2022/01/16 05:41:18;;;;;;;4.80;4.20;;;1.70;75.20;;;;;;5015835;28;20519;-77
2022/01/16 05:43:45;;;;;;;4.30;3.70;;;1.60;75.60;;;;;;5016312;28;20433;-77
2022/01/16 05:46:11;;;;;;;5.13;4.30;;;1.60;75.60;;;;;;5016246;28;20456;-77
2022/01/16 05:48:38;;;;;;;4.70;4.10;;;1.60;75.80;;;;;;5015749;28;20527;-77
2022/01/16 05:51:05;;;;;;;4.37;3.50;;;1.60;75.90;;;;;;5015615;28;20476;-77
2022/01/16 05:53:31;;;;;;;5.10;4.27;;;1.60;76.10;;;;;;5015564;28;20534;-77
2022/01/16 05:55:58;;;;;;;5.10;4.60;;;1.60;75.50;;;;;;5015635;28;20498;-77
2022/01/16 05:58:26;;;;;;;4.97;4.47;;;1.70;75.40;;;;;;5015561;28;20453;-77
2022/01/16 06:00:53;;;;;;;5.07;4.40;;;1.60;75.50;;;;;;5015316;28;20464;-77
2022/01/16 06:03:21;;;;;;;4.60;4.10;;;1.60;75.50;;;;;;5015548;28;20491;-77
2022/01/16 06:05:47;;;;;;;5.20;4.13;;;1.60;75.40;;;;;;5014159;28;20830;-77
2022/01/16 06:08:14;;;;;;;4.40;4.00;;;1.60;75.00;;;;;;5015417;28;20448;-77
2022/01/16 06:10:42;;;;;;;4.43;3.63;;;1.50;74.90;;;;;;5015256;28;20468;-77
2022/01/16 06:13:09;;;;;;;4.70;4.10;;;1.50;75.10;;;;;;5015492;28;20547;-77
2022/01/16 06:15:40;;;;;;;5.10;4.10;;;1.40;75.50;;;;;;5014952;28;20440;-77
2022/01/16 06:18:07;;;;;;;4.47;4.07;;;1.40;75.60;;;;;;5015284;28;20535;-77
2022/01/16 06:20:34;;;;;;;5.60;4.93;;;1.40;75.20;;;;;;5015372;28;20448;-77
2022/01/16 06:23:01;;;;;;;4.97;4.47;;;1.40;75.20;;;;;;5015108;28;20444;-77
2022/01/16 06:25:28;;;;;;;5.00;4.27;;;1.30;75.80;;;;;;5015064;28;20539;-77
2022/01/16 06:27:55;;;;;;;5.47;4.73;;;1.30;76.40;;;;;;5014692;28;20989;-77
2022/01/16 06:30:22;;;;;;;4.77;4.33;;;1.30;76.70;;;;;;5014985;28;20565;-77
2022/01/16 06:32:50;;;;;;;4.53;3.67;;;1.40;76.50;;;;;;5014660;28;20483;-77
2022/01/16 06:35:17;;;;;;;5.03;4.20;;;1.40;76.30;;;;;;5014541;28;20943;-77
2022/01/16 06:37:44;;;;;;;4.70;4.30;;;1.30;76.10;;;;;;5014533;28;21006;-77
2022/01/16 06:40:13;;;;;;;5.43;4.90;;;1.20;76.80;;;;;;5014817;28;20448;-77
2022/01/16 06:42:41;;;;;;;4.47;3.67;;;1.30;77.20;;;;;;5014777;28;20499;-77
2022/01/16 06:45:10;;;;;;;4.57;4.07;;;1.30;76.80;;;;;;5014744;28;20803;-77
2022/01/16 06:47:37;;;;;;;4.33;3.90;;;1.30;76.50;;;;;;5014658;28;20503;-77
2022/01/16 06:50:06;;;;;;;4.50;4.10;;;1.40;76.30;;;;;;5014614;28;20498;-77
2022/01/16 06:52:33;;;;;;;4.67;4.17;;;1.40;75.90;;;;;;5014501;28;20484;-77
2022/01/16 06:55:00;;;;;;;4.87;4.00;;;1.40;75.90;;;;;;5014546;28;20855;-77
2022/01/16 06:57:26;;;;;;;4.73;4.20;;;1.40;75.90;;;;;;5014634;28;20448;-77
2022/01/16 06:59:53;;;;;;;5.00;4.50;;;1.40;75.60;;;;;;5014427;28;20457;-77
2022/01/16 07:02:22;;;;;;;4.83;4.30;;;1.40;75.70;;;;;;5013876;28;21000;-77
2022/01/16 07:04:48;;;;;;;4.80;4.10;;;1.40;75.80;;;;;;5013995;28;20962;-77
2022/01/16 07:07:16;;;;;;;5.00;4.50;;;1.40;75.80;;;;;;5014747;28;20903;-77
2022/01/16 07:09:43;;;;;;;4.90;3.97;;;1.50;75.90;;;;;;5014283;28;20475;-77
2022/01/16 07:12:11;;;;;;;4.63;4.13;;;1.60;75.50;;;;;;5014053;28;20472;-77
2022/01/16 07:14:37;;;;;;;4.40;3.87;;;1.60;75.40;;;;;;5014127;28;20495;-77
2022/01/16 07:17:04;;;;;;;4.67;3.90;;;1.60;75.40;;;;;;5014489;28;20448;-77
2022/01/16 07:19:31;;;;;;;5.20;4.50;;;1.60;75.60;;;;;;5013798;28;20863;-77
2022/01/16 07:21:58;;;;;;;4.30;3.90;;;1.60;75.50;;;;;;5014003;28;20472;-77
2022/01/16 07:24:26;;;;;;;4.70;3.90;;;1.40;76.20;;;;;;5014061;28;20445;-77
2022/01/16 07:26:54;;;;;;;4.80;4.00;;;1.30;76.90;;;;;;5014005;28;20444;-78
2022/01/16 07:29:21;;;;;;;4.90;4.40;;;1.40;77.20;;;;;;5014028;28;20807;-77
2022/01/16 07:31:48;;;;;;;4.80;4.30;;;1.60;77.20;;;;;;5014741;28;20475;-77
2022/01/16 07:34:14;;;;;;;4.70;3.77;;;1.70;77.10;;;;;;5013584;28;20999;-77
2022/01/16 07:36:41;;;;;;;3.90;3.10;;;1.80;76.80;;;;;;5013836;28;20449;-77
2022/01/16 07:39:08;;;;;;;4.60;4.07;;;1.80;76.70;;;;;;5014328;28;20448;-77
2022/01/16 07:41:36;;;;;;;4.17;3.57;;;2.00;76.50;;;;;;5013972;28;20483;-77
2022/01/16 07:44:03;;;;;;;4.60;4.10;;;2.50;77.20;;;;;;5014093;28;20448;-78
2022/01/16 07:46:30;;;;;;;4.47;3.80;;;3.40;75.30;;;;;;5013683;28;20943;-77
2022/01/16 07:48:57;;;;;;;4.23;3.70;;;4.40;72.00;;;;;;5014261;28;20452;-77
2022/01/16 07:51:24;;;;;;;4.10;3.60;;;5.10;68.60;;;;;;5013328;28;20522;-78
2022/01/16 07:53:52;;;;;;;3.53;2.83;;;5.50;66.50;;;;;;5013686;28;20484;-78
2022/01/16 07:56:19;;;;;;;4.23;3.50;;;5.60;65.00;;;;;;5013715;28;20455;-78
2022/01/16 07:58:47;;;;;;;4.30;3.80;;;5.60;64.70;;;;;;5013659;28;20865;-78
2022/01/16 08:01:13;;;;;;;4.93;4.40;;;5.50;64.60;;;;;;5013128;28;20998;-78
2022/01/16 08:03:40;;;;;;;8.90;8.10;;;5.40;64.80;;;;;;5013561;28;20599;-78
2022/01/16 08:06:07;;;;;;;5.60;4.67;;;4.70;65.50;;;;;;5013501;28;20452;-78
2022/01/16 08:08:34;;;;;;;4.63;4.23;;;4.20;66.80;;;;;;5013282;28;20452;-78
2022/01/16 08:11:00;;;;;;;4.67;4.20;;;3.80;68.40;;;;;;5013541;28;20460;-78
2022/01/16 08:13:27;;;;;;;4.67;4.00;;;3.90;68.50;;;;;;5013694;28;20487;-77
2022/01/16 08:15:55;;;;;;;4.53;4.00;;;3.90;69.10;;;;;;5013533;28;20452;-79
2022/01/16 08:18:22;;;;;;;4.90;4.40;;;4.00;69.10;;;;;;5013520;28;20449;-78
2022/01/16 08:20:48;;;;;;;4.13;3.57;;;4.00;69.30;;;;;;5013555;28;20522;-78
2022/01/16 08:23:15;;;;;;;4.47;3.50;;;4.20;69.20;;;;;;5013179;28;20977;-78
2022/01/16 08:25:42;;;;;;;4.20;3.80;;;4.40;68.10;;;;;;5013576;28;20456;-78
2022/01/16 08:28:08;;;;;;;5.03;4.53;;;4.60;68.00;;;;;;5013396;28;20503;-78
2022/01/16 08:30:35;;;;;;;4.97;4.47;;;4.90;67.30;;;;;;5016641;28;21005;-78
2022/01/16 08:33:03;;;;;;;4.40;4.00;;;5.30;66.70;;;;;;5017204;28;20476;-78
2022/01/16 08:35:30;;;;;;;4.80;4.40;;;5.70;65.80;;;;;;5017424;28;20498;-78
2022/01/16 08:37:56;;;;;;;5.40;4.90;;;5.90;64.70;;;;;;5017198;28;20444;-79
2022/01/16 08:40:24;;;;;;;4.70;4.20;;;6.10;64.50;;;;;;5017010;28;20452;-79
2022/01/16 08:42:51;;;;;;;4.67;3.80;;;6.80;63.90;;;;;;5017099;28;20452;-78
2022/01/16 08:45:17;;;;;;;4.77;4.07;;;7.70;61.80;;;;;;5017035;28;20444;-76
2022/01/16 08:47:44;;;;;;;4.23;3.50;;;8.60;59.90;;;;;;5016921;28;20451;-77
2022/01/16 08:50:14;;;;;;;4.30;3.70;;;9.10;58.00;;;;;;5016875;28;20513;-76
2022/01/16 08:52:41;;;;;;;4.17;3.63;;;9.20;57.30;;;;;;5016696;28;20530;-78
2022/01/16 08:55:10;;;;;;;4.90;3.97;;;9.20;57.40;;;;;;5016757;28;20498;-77
2022/01/16 08:57:37;;;;;;;4.43;3.70;;;9.10;57.30;;;;;;5016686;28;20860;-77
2022/01/16 09:00:05;;;;;;;3.90;3.43;;;8.90;57.10;;;;;;5016708;28;20447;-77
2022/01/16 09:02:32;;;;;;;4.60;4.10;;;8.60;58.10;;;;;;5016475;28;20522;-77
2022/01/16 09:04:59;;;;;;;3.90;3.30;;;8.30;59.00;;;;;;5016556;28;20436;-77
2022/01/16 09:07:27;;;;;;;4.90;4.40;;;8.30;59.50;;;;;;5016533;28;20478;-77
2022/01/16 09:09:53;;;;;;;4.23;3.77;;;8.50;59.50;;;;;;5016127;28;20885;-77
2022/01/16 09:12:20;;;;;;;4.30;3.90;;;7.90;60.10;;;;;;5016588;28;20468;-77
2022/01/16 09:14:47;;;;;;;4.20;3.80;;;7.60;61.90;;;;;;5016308;28;20668;-78
2022/01/16 09:17:13;;;;;;;4.83;4.33;;;7.40;62.50;;;;;;5016033;28;20875;-77
2022/01/16 09:19:42;;;;;;;4.33;3.90;;;7.20;63.30;;;;;;5015981;28;20858;-77
2022/01/16 09:22:08;;;;;;;4.50;3.83;;;7.00;63.90;;;;;;5016203;28;20472;-77
2022/01/16 09:24:36;;;;;;;4.80;3.90;;;6.60;65.00;;;;;;5016266;28;20444;-77
2022/01/16 09:27:03;;;;;;;6.20;5.60;;;5.80;66.80;;;;;;5016165;28;20502;-77
2022/01/16 09:29:30;;;;;;;5.87;5.20;;;5.50;68.00;;;;;;5016165;28;20502;-77
2022/01/16 09:31:57;;;;;;;5.07;4.57;;;4.60;71.30;;;;;;5015747;28;21028;-77
2022/01/16 09:34:24;;;;;;;5.00;4.50;;;4.30;73.90;;;;;;5015951;28;20483;-77
2022/01/16 09:36:50;;;;;;;5.03;4.53;;;4.00;75.00;;;;;;5015729;28;20946;-76
2022/01/16 09:39:17;;;;;;;6.83;5.30;;;4.40;74.90;;;;;;5016013;28;20494;-77
2022/01/16 09:41:46;;;;;;;4.80;4.10;;;4.60;73.90;;;;;;5015827;28;20522;-77
2022/01/16 09:44:13;;;;;;;4.93;4.43;;;4.90;72.60;;;;;;5015844;28;20444;-77
2022/01/16 09:46:40;;;;;;;5.40;4.57;;;5.10;71.60;;;;;;5015851;28;20456;-77
2022/01/16 09:49:07;;;;;;;4.70;4.20;;;5.20;70.70;;;;;;5015588;28;20472;-77
2022/01/16 09:51:33;;;;;;;4.40;4.00;;;5.40;71.00;;;;;;5015724;28;20522;-77
2022/01/16 09:54:00;;;;;;;5.30;4.80;;;5.50;70.70;;;;;;5015540;28;20893;-78
2022/01/16 09:56:27;;;;;;;5.03;4.53;;;5.50;69.60;;;;;;5015619;28;20522;-78
2022/01/16 09:58:55;;;;;;;5.80;4.70;;;5.30;70.80;;;;;;5015601;28;20861;-78
2022/01/16 10:01:22;;;;;;;5.10;4.60;;;5.30;71.90;;;;;;5015281;28;20495;-77
2022/01/16 10:03:49;;;;;;;5.23;4.73;;;4.90;72.30;;;;;;5015447;28;20510;-77
2022/01/16 10:06:20;;;;;;;6.17;5.57;;;4.50;74.30;;;;;;5015726;28;20873;-77
2022/01/16 10:08:48;;;;;;;5.20;4.70;;;4.60;74.10;;;;;;5015178;28;20947;-77
2022/01/16 10:11:33;;;;;;;5.10;4.63;;;4.60;74.30;;;;;;5015328;28;20471;-77
2022/01/16 10:14:08;;;;;;;4.90;4.40;;;4.70;74.70;;;;;;5015278;28;20475;-77
2022/01/16 10:16:38;;;;;;;4.87;4.37;;;4.60;75.10;;;;;;5039739;23;20495;-77
2022/01/16 10:19:18;;;;;;;5.47;4.97;;;4.90;74.90;;;;;;5015148;28;20498;-77
2022/01/16 10:21:44;;;;;;;5.33;4.03;;;5.00;74.70;;;;;;5015393;28;20463;-77
2022/01/16 10:24:20;;;;;;;6.20;5.60;;;5.20;74.60;;;;;;5015329;28;20447;-77
2022/01/16 10:26:48;;;;;;;5.30;4.80;;;5.40;74.40;;;;;;5015933;28;20464;-77
2022/01/16 10:29:18;;;;;;;5.27;4.77;;;5.50;73.80;;;;;;5015180;28;20507;-78
2022/01/16 10:31:45;;;;;;;5.13;4.63;;;5.80;72.90;;;;;;5014920;28;20451;-78
2022/01/16 10:34:27;;;;;;;4.97;4.50;;;6.00;72.00;;;;;;5014825;28;20623;-77
2022/01/16 10:36:54;;;;;;;5.37;4.77;;;6.40;71.30;;;;;;5015920;28;20499;-77
2022/01/16 10:39:21;;;;;;;5.10;4.60;;;7.10;70.00;;;;;;5017124;28;20455;-78
2022/01/16 10:42:16;;;;;;;4.67;4.17;;;8.00;67.50;;;;;;5016637;28;20448;-78
2022/01/16 10:44:45;;;;;;;5.63;5.13;;;7.90;65.50;;;;;;5019854;28;20456;-78
2022/01/16 10:47:34;;;;;;;4.73;4.23;;;7.40;66.90;;;;;;5020214;28;20879;-78
2022/01/16 10:50:16;;;;;;;5.30;4.60;;;7.00;68.40;;;;;;5014769;28;20441;-78
2022/01/16 10:52:58;;;;;;;5.70;5.20;;;6.80;68.50;;;;;;5015581;28;20440;-78
2022/01/16 10:55:33;;;;;;;4.90;4.40;;;6.60;69.30;;;;;;5018702;28;20468;-78
2022/01/16 10:58:07;;;;;;;4.87;4.47;;;6.70;69.50;;;;;;5015345;28;20472;-78
2022/01/16 11:00:35;;;;;;;5.43;4.93;;;6.90;69.60;;;;;;5014574;28;20432;-78
2022/01/16 11:03:07;;;;;;;5.07;4.57;;;7.10;70.10;;;;;;5014642;28;20510;-78
2022/01/16 11:05:36;;;;;;;4.90;4.50;;;7.30;69.10;;;;;;5015716;28;20468;-78
2022/01/16 11:08:06;;;;;;;5.47;4.97;;;7.40;68.00;;;;;;5021212;28;20975;-78
2022/01/16 11:10:34;;;;;;;5.30;4.80;;;7.50;67.80;;;;;;5021802;28;20463;-78
2022/01/16 11:13:03;;;;;;;5.23;4.73;;;7.40;68.10;;;;;;5021871;28;20444;-78
2022/01/16 11:15:31;;;;;;;6.47;5.80;;;7.40;68.00;;;;;;5015794;28;20480;-78
2022/01/16 11:18:00;;;;;;;5.70;5.20;;;7.40;68.20;;;;;;5016464;28;20484;-78
2022/01/16 11:20:32;;;;;;;5.27;4.77;;;7.40;67.90;;;;;;5016379;28;20453;-78
2022/01/16 11:23:02;;;;;;;5.50;5.00;;;7.30;68.00;;;;;;5018761;28;20970;-78
2022/01/16 11:25:33;;;;;;;5.20;4.70;;;7.20;68.20;;;;;;5014711;28;20428;-77
2022/01/16 11:28:02;;;;;;;5.03;4.37;;;7.20;68.70;;;;;;5014456;28;20472;-78
2022/01/16 11:30:30;;;;;;;5.17;4.63;;;7.40;68.60;;;;;;5014110;28;20452;-78
2022/01/16 11:32:57;;;;;;;4.97;4.47;;;7.50;67.50;;;;;;5015253;28;20543;-78
2022/01/16 11:35:26;;;;;;;5.00;4.50;;;7.50;67.60;;;;;;5014388;28;20538;-78
2022/01/16 11:37:53;;;;;;;5.10;4.60;;;7.40;67.80;;;;;;5014772;28;20472;-78
2022/01/16 11:40:24;;;;;;;6.07;5.50;;;7.40;68.20;;;;;;5015063;28;20518;-78
2022/01/16 11:43:16;;;;;;;6.00;5.00;;;7.40;68.70;;;;;;5013812;28;20428;-78
2022/01/16 11:45:54;;;;;;;5.30;4.80;;;7.30;68.70;;;;;;5013137;28;20456;-77
2022/01/16 11:48:41;;;;;;;5.63;5.10;;;7.30;68.80;;;;;;5013772;28;20440;-78
2022/01/16 11:51:51;;;;;;;4.70;4.13;;;7.10;69.50;;;;;;5013564;28;20523;-78
2022/01/16 11:54:23;;;;;;;5.50;5.00;;;7.00;69.50;;;;;;5013485;28;20827;-78
2022/01/16 11:56:52;;;;;;;5.80;5.20;;;7.00;69.80;;;;;;5014228;28;20841;-77
2022/01/16 11:59:21;;;;;;;5.73;5.23;;;7.00;70.00;;;;;;5017665;28;20471;-78
2022/01/16 12:01:50;;;;;;;5.13;4.63;;;7.00;69.90;;;;;;5017545;28;20510;-78
2022/01/16 12:04:57;;;;;;;5.27;4.77;;;6.90;70.20;;;;;;5013541;28;20449;-78
2022/01/16 12:07:53;;;;;;;5.40;4.47;;;6.80;70.60;;;;;;4992841;28;20541;-78
2022/01/16 12:10:54;;;;;;;4.83;4.33;;;6.50;71.00;;;;;;5010093;28;20951;-78
2022/01/16 12:13:52;;;;;;;5.07;4.57;;;6.20;72.20;;;;;;5013463;28;20436;-78
2022/01/16 12:16:44;;;;;;;5.60;4.77;;;5.90;73.00;;;;;;5015378;28;20468;-77
2022/01/16 12:19:44;;;;;;;6.37;4.80;;;5.90;73.60;;;;;;5015281;28;20828;-77
2022/01/16 12:22:17;;;;;;;4.93;4.27;;;5.70;73.90;;;;;;5015338;28;20543;-77
2022/01/16 12:24:58;;;;;;;5.10;4.60;;;5.70;74.20;;;;;;5014398;28;20435;-78
2022/01/16 12:27:44;;;;;;;4.90;4.23;;;5.60;74.20;;;;;;5013559;28;20877;-77
2022/01/16 12:30:33;;;;;;;4.80;4.30;;;5.60;74.60;;;;;;5013949;28;20469;-78
2022/01/16 12:33:08;;;;;;;5.00;4.40;;;5.50;74.80;;;;;;5013375;28;20441;-77
2022/01/16 12:36:10;;;;;;;4.67;4.20;;;5.50;74.70;;;;;;5013419;28;20470;-78
2022/01/16 12:39:06;;;;;;;5.17;4.20;;;5.30;75.40;;;;;;5013150;28;20435;-77
2022/01/16 12:41:40;;;;;;;5.30;4.80;;;5.40;75.90;;;;;;5009049;28;20484;-77
2022/01/16 12:44:09;;;;;;;4.97;4.47;;;5.40;75.10;;;;;;5013325;28;20443;-76
2022/01/16 12:46:39;;;;;;;5.90;5.00;;;5.10;76.00;;;;;;5013354;28;20472;-77
2022/01/16 12:49:09;;;;;;;5.07;4.20;;;4.90;76.60;;;;;;5018951;28;20459;-78
2022/01/16 12:51:38;;;;;;;4.80;4.00;;;4.80;76.90;;;;;;5019121;28;20506;-77
2022/01/16 12:54:08;;;;;;;4.37;3.93;;;4.80;76.70;;;;;;5018772;28;20510;-78
2022/01/16 12:56:39;;;;;;;4.67;4.17;;;4.80;76.80;;;;;;5013236;28;20474;-77
2022/01/16 12:59:14;;;;;;;4.20;3.80;;;4.90;76.60;;;;;;5014140;28;20424;-76
2022/01/16 13:01:50;;;;;;;4.23;3.60;;;4.80;76.50;;;;;;5012655;28;20472;-75
2022/01/16 13:04:27;;;;;;;4.67;3.73;;;4.90;76.20;;;;;;5012162;28;20911;-77
2022/01/16 13:06:54;;;;;;;4.37;3.53;;;4.90;76.20;;;;;;5012210;28;20983;-74
2022/01/16 13:09:22;;;;;;;3.80;2.97;;;4.90;76.30;;;;;;5012436;28;20920;-77
2022/01/16 13:11:51;;;;;;;4.07;2.83;;;4.90;75.90;;;;;;5012481;28;20453;-77
2022/01/16 13:14:22;;;;;;;4.17;3.23;;;4.90;76.00;;;;;;5012469;28;20506;-77
2022/01/16 13:16:51;;;;;;;4.00;2.63;;;4.80;75.90;;;;;;5016380;28;20494;-78
2022/01/16 13:19:21;;;;;;;3.53;2.80;;;4.70;76.00;;;;;;5016480;28;20460;-76
2022/01/16 13:22:02;;;;;;;3.87;2.80;;;4.60;76.10;;;;;;5016265;28;20436;-77
2022/01/16 13:24:35;;;;;;;3.33;2.30;;;4.50;76.40;;;;;;5016010;28;20435;-77
2022/01/16 13:27:06;;;;;;;4.00;3.30;;;4.60;76.40;;;;;;5016125;28;20495;-78
2022/01/16 13:29:36;;;;;;;3.60;2.40;;;4.60;75.90;;;;;;5017229;28;20432;-78
2022/01/16 13:32:04;;;;;;;3.53;2.20;;;4.40;76.50;;;;;;5016231;28;20465;-76
2022/01/16 13:34:37;;;;;;;3.70;2.83;;;4.30;76.60;;;;;;5017419;28;20481;-77
2022/01/16 13:37:05;;;;;;;3.70;2.70;;;4.30;76.70;;;;;;5015588;28;20535;-76
2022/01/16 13:39:44;;;;;;;3.20;2.17;;;4.50;77.00;;;;;;5015064;28;20916;-76
2022/01/16 13:42:23;;;;;;;3.60;2.70;;;4.70;76.10;;;;;;5016675;28;20478;-77
2022/01/16 13:44:50;;;;;;;3.97;2.40;;;4.80;75.80;;;;;;5015756;28;20478;-77
2022/01/16 13:47:19;;;;;;;3.43;2.43;;;5.00;75.50;;;;;;5015626;28;20480;-76
2022/01/16 13:49:47;;;;;;;3.80;2.87;;;5.10;75.30;;;;;;5015415;28;20871;-76
2022/01/16 13:52:25;;;;;;;3.90;2.53;;;5.10;74.30;;;;;;5015736;28;20452;-76
2022/01/16 13:55:04;;;;;;;3.83;2.70;;;4.90;75.30;;;;;;5015357;28;20560;-77
2022/01/16 13:57:34;;;;;;;4.10;2.90;;;5.00;74.50;;;;;;5015002;28;21009;-77
2022/01/16 14:00:04;;;;;;;4.10;2.83;;;5.10;74.50;;;;;;5015688;28;20440;-77
2022/01/16 14:02:31;;;;;;;3.40;2.87;;;5.10;74.80;;;;;;5016170;28;20973;-77
2022/01/16 14:04:58;;;;;;;3.60;3.00;;;5.10;73.90;;;;;;5015126;28;20448;-77
2022/01/16 14:07:24;;;;;;;4.43;3.20;;;5.10;74.00;;;;;;5015112;28;20473;-77
2022/01/16 14:09:52;;;;;;;3.43;2.70;;;4.90;74.00;;;;;;5014880;28;20449;-76
2022/01/16 14:12:19;;;;;;;3.70;2.50;;;4.80;75.20;;;;;;5015536;28;20890;-76
2022/01/16 14:14:49;;;;;;;3.33;2.20;;;4.70;75.30;;;;;;5014820;28;20476;-76
2022/01/16 14:17:39;;;;;;;3.97;2.97;;;4.60;75.80;;;;;;5014617;28;20571;-76
2022/01/16 14:20:46;;;;;;;3.80;2.77;;;4.70;76.00;;;;;;5014578;28;20869;-76
2022/01/16 14:23:12;;;;;;;3.90;2.90;;;4.80;75.70;;;;;;5014413;28;20460;-76
2022/01/16 14:25:39;;;;;;;4.20;2.40;;;4.80;75.30;;;;;;5014995;28;20498;-76
2022/01/16 14:28:06;;;;;;;3.77;3.13;;;4.90;75.00;;;;;;5014198;28;20451;-76
2022/01/16 14:30:34;;;;;;;3.93;2.90;;;4.90;74.80;;;;;;5014981;28;20454;-77
2022/01/16 14:33:01;;;;;;;3.93;2.93;;;4.90;74.10;;;;;;5014643;28;20452;-77
2022/01/16 14:35:28;;;;;;;3.80;2.70;;;4.90;74.10;;;;;;5014607;28;20487;-76
2022/01/16 14:37:54;;;;;;;3.97;2.87;;;4.80;73.90;;;;;;5014409;28;20518;-77
2022/01/16 14:40:21;;;;;;;3.80;2.97;;;4.90;74.10;;;;;;5017081;28;20940;-75
2022/01/16 14:42:57;;;;;;;3.53;2.83;;;5.10;73.50;;;;;;5016361;28;20448;-77
2022/01/16 14:45:25;;;;;;;3.40;2.40;;;5.00;73.40;;;;;;5014721;28;20433;-76
2022/01/16 14:47:53;;;;;;;3.57;2.50;;;5.10;73.30;;;;;;5014329;28;20479;-76
2022/01/16 14:50:20;;;;;;;3.93;2.60;;;5.20;73.40;;;;;;5014317;28;20455;-76
2022/01/16 14:52:48;;;;;;;3.97;2.77;;;5.30;73.00;;;;;;5014467;28;20862;-77
2022/01/16 14:55:16;;;;;;;3.90;2.73;;;5.30;72.70;;;;;;5013760;28;20507;-75
2022/01/16 14:57:43;;;;;;;3.60;2.60;;;5.30;72.10;;;;;;5013359;28;20483;-76
2022/01/16 15:00:10;;;;;;;3.83;2.57;;;5.30;72.60;;;;;;5013952;28;20983;-76
2022/01/16 15:02:37;;;;;;;4.50;2.60;;;5.20;72.30;;;;;;5015389;28;20444;-77
2022/01/16 15:05:08;;;;;;;3.50;2.50;;;5.10;72.70;;;;;;5014114;28;20822;-76
2022/01/16 15:07:35;;;;;;;3.30;2.10;;;5.30;72.90;;;;;;5014145;28;20522;-76
2022/01/16 15:10:02;;;;;;;3.30;2.37;;;5.10;72.10;;;;;;5014180;28;20444;-76
2022/01/16 15:12:28;;;;;;;2.97;1.90;;;4.90;73.00;;;;;;5014185;28;20448;-75
2022/01/16 15:14:55;;;;;;;3.37;2.27;;;4.80;73.10;;;;;;5014221;28;20857;-76
2022/01/16 15:17:27;;;;;;;3.50;2.27;;;4.80;73.90;;;;;;5013824;28;20479;-76
2022/01/16 15:19:56;;;;;;;3.40;2.33;;;4.60;74.10;;;;;;5014124;28;20540;-76
2022/01/16 15:22:25;;;;;;;3.50;2.10;;;4.60;74.20;;;;;;5017228;28;20808;-76
2022/01/16 15:24:53;;;;;;;3.53;2.13;;;4.70;74.30;;;;;;5016786;28;20441;-76
2022/01/16 15:27:20;;;;;;;3.30;2.40;;;4.80;73.80;;;;;;5013645;28;20519;-76
2022/01/16 15:29:47;;;;;;;3.37;2.10;;;4.70;73.70;;;;;;5013034;28;20455;-76
2022/01/16 15:32:14;;;;;;;2.87;1.80;;;4.70;74.20;;;;;;5013485;28;20541;-76
2022/01/16 15:34:41;;;;;;;3.57;2.07;;;4.70;73.80;;;;;;5013096;28;20874;-76
2022/01/16 15:37:08;;;;;;;3.17;2.23;;;4.80;73.30;;;;;;5025155;28;20488;-76
2022/01/16 15:39:36;;;;;;;3.50;2.20;;;4.60;73.60;;;;;;5030216;28;20440;-76
2022/01/16 15:42:03;;;;;;;3.30;2.03;;;4.60;73.80;;;;;;5035432;28;20452;-77
2022/01/16 15:44:31;;;;;;;3.43;2.40;;;4.70;74.10;;;;;;5024807;28;20444;-76
2022/01/16 15:46:57;;;;;;;3.20;2.47;;;4.70;74.20;;;;;;5014595;28;20469;-77
2022/01/16 15:49:25;;;;;;;3.77;2.70;;;4.60;74.70;;;;;;5014180;28;20452;-76
2022/01/16 15:51:51;;;;;;;3.43;2.50;;;4.50;74.70;;;;;;5013604;28;20480;-76
2022/01/16 15:54:18;;;;;;;4.13;3.20;;;4.30;75.40;;;;;;5013944;28;20448;-76
2022/01/16 15:56:46;;;;;;;3.50;2.40;;;4.10;76.00;;;;;;5012722;28;20542;-76
2022/01/16 15:59:13;;;;;;;3.37;2.27;;;4.10;76.70;;;;;;5013205;28;20452;-76
2022/01/16 16:01:40;;;;;;;3.30;2.40;;;4.10;76.50;;;;;;5013079;28;20455;-76
2022/01/16 16:04:06;;;;;;;3.73;2.23;;;4.10;76.40;;;;;;5013299;28;20452;-77
2022/01/16 16:06:34;;;;;;;3.23;2.30;;;4.20;76.30;;;;;;5013049;28;20471;-77
2022/01/16 16:09:01;;;;;;;3.30;2.50;;;4.10;76.20;;;;;;5013091;28;20452;-77
2022/01/16 16:11:27;;;;;;;5.00;2.67;;;4.10;76.60;;;;;;5013615;28;20444;-77
2022/01/16 16:13:55;;;;;;;3.30;2.57;;;4.20;76.60;;;;;;5013673;28;20452;-76
2022/01/16 16:16:22;;;;;;;5.10;3.07;;;4.30;76.60;;;;;;5129771;23;20508;31
2022/01/16 16:18:49;;;;;;;3.50;2.50;;;4.20;76.30;;;;;;5012236;28;20464;-78
2022/01/16 16:21:15;;;;;;;3.80;2.83;;;4.10;76.80;;;;;;5013857;28;20444;-78
2022/01/16 16:23:42;;;;;;;3.50;2.90;;;4.10;77.00;;;;;;5013598;28;20534;-78
2022/01/16 16:26:09;;;;;;;3.57;3.23;;;4.20;76.70;;;;;;5013641;28;20436;-78
2022/01/16 16:28:35;;;;;;;3.43;2.33;;;4.30;76.70;;;;;;5033166;28;20451;-78
2022/01/16 16:31:03;;;;;;;3.63;2.63;;;4.30;76.30;;;;;;5033505;28;20505;-78
2022/01/16 16:33:30;;;;;;;3.20;2.27;;;4.10;76.50;;;;;;5033213;28;20855;-78
2022/01/16 16:35:58;;;;;;;3.40;2.30;;;4.10;76.80;;;;;;5032682;28;21063;-77
2022/01/16 16:38:25;;;;;;;3.40;2.70;;;4.10;76.90;;;;;;5032581;28;20830;-77
2022/01/16 16:40:52;;;;;;;3.33;2.17;;;4.20;76.60;;;;;;5033027;28;20534;-77
2022/01/16 16:43:19;;;;;;;3.70;2.20;;;4.30;76.50;;;;;;5033150;28;20451;-77
2022/01/16 16:45:45;;;;;;;3.20;2.23;;;4.40;75.90;;;;;;5033034;28;20807;-76
2022/01/16 16:48:13;;;;;;;3.60;2.30;;;4.40;75.30;;;;;;5033066;28;20549;-78
2022/01/16 16:50:40;;;;;;;3.10;2.17;;;4.30;75.90;;;;;;5035232;28;20490;-78
2022/01/16 16:53:08;;;;;;;3.10;2.10;;;4.20;76.00;;;;;;5037086;28;20452;-78
2022/01/16 16:55:35;;;;;;;3.40;2.40;;;4.00;76.30;;;;;;5037533;28;20507;-75
2022/01/16 16:58:02;;;;;;;3.20;1.90;;;4.10;76.50;;;;;;5036797;28;20502;-79
2022/01/16 17:00:29;;;;;;;3.53;2.50;;;4.30;76.10;;;;;;5036819;28;20875;-78
2022/01/16 17:02:56;;;;;;;3.10;2.43;;;4.30;75.80;;;;;;5036916;28;20451;-78
2022/01/16 17:05:24;;;;;;;3.33;2.10;;;4.20;75.70;;;;;;5037801;28;20516;-77
2022/01/16 17:07:51;;;;;;;2.93;1.67;;;4.30;76.00;;;;;;5037331;28;20590;-77
2022/01/16 17:10:17;;;;;;;2.97;1.70;;;4.40;75.70;;;;;;5036481;28;20451;-77
2022/01/16 17:12:45;;;;;;;3.27;1.97;;;4.50;75.40;;;;;;5036283;28;20447;-76
2022/01/16 17:15:13;;;;;;;3.00;1.93;;;4.60;75.10;;;;;;5036360;28;20447;-76